Time;durP1;ratioP1;P1;durP2;ratioP2;P2;SDS_P1;SDS_P2;PMS_P1;PMS_P2;Temp;Humidity;BMP_temperature;BMP_pressure;BME280_temperature;BME280_humidity;BME280_pressure;Samples;Min_cycle;Max_cycle;Signal;HPM_P1;HPM_P2
2021/07/02 00:00:20;;;;;;;8.00;5.38;;;;;;;12.80;100.00;95925.06;1010833;29;20423;-68
2021/07/02 00:00:50;;;;;;;7.43;4.93;;;;;;;12.81;100.00;95924.03;1011263;29;20055;-68
2021/07/02 00:01:21;;;;;;;8.05;5.30;;;;;;;12.85;100.00;95926.91;1018682;29;20144;-68
2021/07/02 00:01:52;;;;;;;7.28;5.05;;;;;;;12.84;100.00;95926.09;1013605;29;20028;-68
2021/07/02 00:02:22;;;;;;;6.90;5.20;;;;;;;12.82;100.00;95922.97;1018658;29;20036;-68
2021/07/02 00:02:53;;;;;;;8.43;5.28;;;;;;;12.82;100.00;95930.88;1010606;29;20123;-68
2021/07/02 00:03:24;;;;;;;6.05;4.68;;;;;;;12.82;100.00;95930.09;1014891;29;20039;-66
2021/07/02 00:03:54;;;;;;;8.18;5.35;;;;;;;12.79;100.00;95928.78;1015616;29;20036;-68
2021/07/02 00:04:25;;;;;;;7.35;5.43;;;;;;;12.79;100.00;95928.78;1020604;28;20062;-69
2021/07/02 00:04:55;;;;;;;9.77;5.25;;;;;;;12.73;100.00;95919.31;1014954;29;20035;-68
2021/07/02 00:05:26;;;;;;;7.22;5.22;;;;;;;12.74;100.00;95923.53;1011273;29;20167;-69
2021/07/02 00:05:57;;;;;;;9.07;4.90;;;;;;;12.73;100.00;95924.59;1017570;29;20034;-67
2021/07/02 00:06:27;;;;;;;9.52;5.45;;;;;;;12.67;100.00;95915.13;1007204;29;20036;-69
2021/07/02 00:06:58;;;;;;;12.43;6.35;;;;;;;12.64;100.00;95910.41;1010925;29;20036;-67
2021/07/02 00:07:28;;;;;;;10.60;5.60;;;;;;;12.68;100.00;95928.03;1015640;29;20039;-67
2021/07/02 00:07:59;;;;;;;9.98;5.53;;;;;;;12.66;100.00;95929.38;1013626;29;20024;-68
2021/07/02 00:08:29;;;;;;;12.85;5.95;;;;;;;12.58;100.00;95916.78;1014476;29;20096;-66
2021/07/02 00:09:00;;;;;;;7.47;5.38;;;;;;;12.55;100.00;95919.94;1015744;29;20031;-68
2021/07/02 00:09:31;;;;;;;6.70;5.30;;;;;;;12.41;100.00;95893.44;1010578;29;20060;-69
2021/07/02 00:10:02;;;;;;;7.05;5.47;;;;;;;12.52;100.00;95916.00;1022719;29;20098;-68
2021/07/02 00:10:33;;;;;;;7.03;5.35;;;;;;;12.56;100.00;95916.25;1022744;28;20027;-69
2021/07/02 00:11:03;;;;;;;7.10;5.03;;;;;;;12.55;100.00;95923.38;1018396;29;20275;-68
2021/07/02 00:11:34;;;;;;;10.20;5.22;;;;;;;12.54;100.00;95923.63;1018444;29;20631;-68
2021/07/02 00:12:04;;;;;;;9.13;5.60;;;;;;;12.41;100.00;95907.38;1011154;29;20037;-67
2021/07/02 00:12:35;;;;;;;8.80;5.82;;;;;;;12.46;100.00;95915.22;1010699;29;20047;-68
2021/07/02 00:13:05;;;;;;;8.00;5.18;;;;;;;12.45;100.00;95923.41;1018064;29;20027;-68
2021/07/02 00:13:38;;;;;;;11.02;6.03;;;;;;;12.43;100.00;95914.97;1018754;29;20051;-68
2021/07/02 00:14:08;;;;;;;8.57;5.30;;;;;;;12.40;100.00;95918.94;1014618;29;20510;-68
2021/07/02 00:14:39;;;;;;;7.65;5.90;;;;;;;12.30;100.00;95903.19;1012535;29;20268;-68
2021/07/02 00:15:10;;;;;;;9.38;5.97;;;;;;;12.42;100.00;95918.69;1014787;29;20031;-68
2021/07/02 00:15:41;;;;;;;8.68;5.22;;;;;;;12.33;100.00;95910.53;1014386;29;20130;-65
2021/07/02 00:16:12;;;;;;;7.57;5.35;;;;;;;12.31;100.00;95917.94;1013672;29;20272;-68
2021/07/02 00:16:42;;;;;;;7.22;5.50;;;;;;;12.37;100.00;95922.09;1006862;29;20106;-68
2021/07/02 00:17:13;;;;;;;8.18;5.35;;;;;;;12.37;100.00;95927.38;1006978;29;20140;-64
2021/07/02 00:17:43;;;;;;;8.63;5.40;;;;;;;12.36;100.00;95925.78;1014328;29;20035;-69
2021/07/02 00:18:14;;;;;;;7.45;5.30;;;;;;;12.29;100.00;95914.00;1014393;29;20028;-69
2021/07/02 00:18:45;;;;;;;7.50;5.55;;;;;;;12.34;100.00;95921.84;1010791;29;20029;-69
2021/07/02 00:19:15;;;;;;;7.13;5.38;;;;;;;12.32;100.00;95922.13;1014577;29;20084;-67
2021/07/02 00:19:46;;;;;;;10.70;5.68;;;;;;;12.32;100.00;95923.97;1014405;29;20589;-69
2021/07/02 00:20:16;;;;;;;11.10;6.15;;;;;;;12.31;100.00;95919.75;1014937;29;20036;-68
2021/07/02 00:20:47;;;;;;;7.50;5.25;;;;;;;12.27;100.00;95920.31;1010509;29;20033;-65
2021/07/02 00:21:18;;;;;;;11.20;5.80;;;;;;;12.31;100.00;95925.84;1022635;29;20043;-68
2021/07/02 00:21:48;;;;;;;6.60;5.22;;;;;;;12.23;100.00;95911.38;1014643;29;20168;-69
2021/07/02 00:22:19;;;;;;;11.00;5.15;;;;;;;12.33;100.00;95925.56;1010902;29;20482;-69
2021/07/02 00:22:50;;;;;;;8.50;5.18;;;;;;;12.33;100.00;95923.69;1014382;29;20442;-68
2021/07/02 00:23:20;;;;;;;9.63;5.95;;;;;;;12.21;100.00;95902.19;1010698;29;20040;-69
2021/07/02 00:23:51;;;;;;;8.68;5.47;;;;;;;12.25;100.00;95909.25;1018533;29;20103;-68
2021/07/02 00:24:22;;;;;;;9.40;5.50;;;;;;;12.29;100.00;95922.66;1010881;29;20032;-68
2021/07/02 00:24:52;;;;;;;7.60;5.60;;;;;;;12.30;100.00;95921.59;1014291;29;20031;-66
2021/07/02 00:25:23;;;;;;;8.95;5.10;;;;;;;12.29;100.00;95917.41;1006991;29;20050;-68
2021/07/02 00:25:54;;;;;;;8.65;5.60;;;;;;;12.26;100.00;95917.94;1014460;29;20031;-68
2021/07/02 00:26:24;;;;;;;10.00;5.85;;;;;;;12.21;100.00;95905.59;1010289;29;20033;-66
2021/07/02 00:26:55;;;;;;;8.38;5.25;;;;;;;12.29;100.00;95920.03;1007142;29;20033;-68
2021/07/02 00:27:26;;;;;;;9.55;5.22;;;;;;;12.30;100.00;95921.59;1017757;29;20484;-68
2021/07/02 00:27:56;;;;;;;14.88;5.93;;;;;;;12.22;100.00;95903.75;1017229;29;20807;-68
2021/07/02 00:28:27;;;;;;;9.25;5.75;;;;;;;12.26;100.00;95916.09;1014768;29;20075;-68
2021/07/02 00:29:00;;;;;;;9.60;5.45;;;;;;;12.21;100.00;95907.44;1014208;29;20490;-66
2021/07/02 00:29:31;;;;;;;9.35;5.78;;;;;;;12.24;100.00;95917.44;1011796;29;20279;-69
2021/07/02 00:30:01;;;;;;;10.10;6.32;;;;;;;12.20;100.00;95911.91;1013684;29;20281;-68
2021/07/02 00:30:33;;;;;;;9.80;5.68;;;;;;;12.20;100.00;95917.16;1018678;29;20058;-68
2021/07/02 00:31:03;;;;;;;7.55;5.60;;;;;;;12.19;100.00;95914.81;1021654;29;20031;-68
2021/07/02 00:31:33;;;;;;;10.20;5.82;;;;;;;12.19;100.00;95920.06;1015662;29;20659;-68
2021/07/02 00:32:07;;;;;;;8.35;5.22;;;;;;;12.12;100.00;95912.47;1018790;29;20038;-67
2021/07/02 00:32:38;;;;;;;8.18;5.45;;;;;;;12.16;100.00;95920.59;1014646;29;20036;-68
2021/07/02 00:33:08;;;;;;;8.13;5.40;;;;;;;12.14;100.00;95918.25;1011162;29;20276;-68
2021/07/02 00:33:39;;;;;;;8.93;5.57;;;;;;;12.08;100.00;95903.53;1018535;29;20039;-68
2021/07/02 00:34:09;;;;;;;10.10;5.30;;;;;;;12.13;100.00;95915.88;1014751;29;20053;-68
2021/07/02 00:34:39;;;;;;;9.85;5.55;;;;;;;12.09;100.00;95912.22;1010758;29;20066;-68
2021/07/02 00:35:10;;;;;;;8.25;6.22;;;;;;;12.05;100.00;95908.53;1014602;29;20063;-68
2021/07/02 00:35:42;;;;;;;9.57;5.82;;;;;;;12.07;100.00;95912.47;1014766;29;20036;-68
2021/07/02 00:36:12;;;;;;;9.48;6.00;;;;;;;12.04;100.00;95910.38;1013808;29;20032;-67
2021/07/02 00:36:45;;;;;;;12.57;5.70;;;;;;;12.02;100.00;95915.13;1009172;29;20288;-68
2021/07/02 00:37:16;;;;;;;8.48;5.43;;;;;;;12.00;100.00;95912.78;1010818;29;20034;-68
2021/07/02 00:37:49;;;;;;;10.38;5.38;;;;;;;11.96;100.00;95910.91;1015390;29;20279;-67
2021/07/02 00:38:22;;;;;;;7.10;5.35;;;;;;;11.96;100.00;95914.34;1011311;29;20121;-67
2021/07/02 00:38:53;;;;;;;7.75;5.28;;;;;;;11.77;100.00;95892.28;1014090;29;20264;-67
2021/07/02 00:39:23;;;;;;;8.00;5.43;;;;;;;11.91;100.00;95918.84;1012226;29;20277;-68
2021/07/02 00:39:54;;;;;;;9.68;5.40;;;;;;;11.91;100.00;95922.25;1009204;29;20305;-66
2021/07/02 00:40:24;;;;;;;10.52;5.97;;;;;;;11.89;100.00;95926.19;1021846;29;20100;-66
2021/07/02 00:40:55;;;;;;;8.00;5.90;;;;;;;11.87;100.00;95918.59;1015008;29;20111;-68
2021/07/02 00:41:25;;;;;;;8.13;5.60;;;;;;;11.86;100.00;95926.72;1010692;29;20038;-67
2021/07/02 00:41:56;;;;;;;8.80;5.13;;;;;;;11.86;100.00;95916.19;1017080;29;20077;-68
2021/07/02 00:42:27;;;;;;;7.38;5.38;;;;;;;11.85;100.00;95919.91;1006654;29;20057;-67
2021/07/02 00:42:57;;;;;;;9.65;6.18;;;;;;;11.76;100.00;95909.09;1011694;29;20060;-67
2021/07/02 00:43:27;;;;;;;6.90;5.68;;;;;;;11.80;100.00;95912.75;1006713;29;20032;-67
2021/07/02 00:43:58;;;;;;;8.35;5.88;;;;;;;11.76;100.00;95915.13;1012541;29;20103;-68
2021/07/02 00:44:45;;;;;;;7.75;5.47;;;;;;;11.73;100.00;95917.50;1011238;29;20033;-68
2021/07/02 00:45:15;;;;;;;8.85;5.30;;;;;;;11.70;100.00;95912.78;1014889;29;20422;-68
2021/07/02 00:45:46;;;;;;;6.25;5.18;;;;;;;11.71;100.00;95914.38;1010346;29;20288;-68
2021/07/02 00:46:17;;;;;;;8.82;5.45;;;;;;;11.72;100.00;95915.94;1014853;29;20038;-68
2021/07/02 00:46:47;;;;;;;8.93;6.20;;;;;;;11.72;100.00;95918.56;1015007;29;20040;-68
2021/07/02 00:47:19;;;;;;;8.48;5.68;;;;;;;11.68;100.00;95917.53;1010334;29;20028;-66
2021/07/02 00:47:49;;;;;;;10.63;5.97;;;;;;;11.62;100.00;95908.06;1014231;29;20043;-68
2021/07/02 00:48:20;;;;;;;9.07;6.15;;;;;;;11.65;100.00;95920.69;1014940;29;20918;-67
2021/07/02 00:48:50;;;;;;;10.73;6.35;;;;;;;11.61;100.00;95920.41;1018948;29;20671;-67
2021/07/02 00:49:21;;;;;;;11.25;5.80;;;;;;;11.60;100.00;95920.66;1011058;29;20406;-67
2021/07/02 00:49:51;;;;;;;9.45;6.28;;;;;;;11.57;100.00;95919.38;1010929;29;20032;-68
2021/07/02 00:50:22;;;;;;;8.27;6.50;;;;;;;11.56;100.00;95917.78;1014876;29;20036;-67
2021/07/02 00:50:52;;;;;;;9.50;5.68;;;;;;;11.53;100.00;95916.47;1019036;29;20513;-68
2021/07/02 00:51:23;;;;;;;12.68;7.15;;;;;;;11.51;100.00;95923.84;1019021;29;20623;-67
2021/07/02 00:51:53;;;;;;;10.65;6.45;;;;;;;11.49;100.00;95925.94;1018927;29;20460;-68
2021/07/02 00:52:24;;;;;;;9.07;6.70;;;;;;;11.50;100.00;95924.91;1014782;29;20035;-68
2021/07/02 00:52:54;;;;;;;9.70;6.28;;;;;;;11.43;100.00;95913.06;1015016;29;20044;-67
2021/07/02 00:53:24;;;;;;;14.38;6.45;;;;;;;11.44;100.00;95914.66;1015001;29;20035;-68
2021/07/02 00:53:55;;;;;;;9.95;5.78;;;;;;;11.43;100.00;95919.09;1014597;29;20039;-68
2021/07/02 00:54:25;;;;;;;9.30;5.88;;;;;;;11.45;100.00;95922.25;1014980;29;20024;-67
2021/07/02 00:54:59;;;;;;;10.85;6.90;;;;;;;11.44;100.00;95923.31;1014615;29;20526;-68
2021/07/02 00:55:30;;;;;;;10.77;6.25;;;;;;;11.47;100.00;95929.88;1015476;29;20260;-68
2021/07/02 00:56:01;;;;;;;10.68;6.07;;;;;;;11.47;100.00;95922.00;1014995;29;20031;-68
2021/07/02 00:56:31;;;;;;;13.57;6.75;;;;;;;11.46;100.00;95918.56;1010973;29;20273;-68
2021/07/02 00:57:02;;;;;;;10.45;6.95;;;;;;;11.45;100.00;95921.47;1006949;29;20037;-66
2021/07/02 00:57:35;;;;;;;11.02;6.63;;;;;;;11.47;100.00;95922.78;1010785;29;20048;-69
2021/07/02 00:58:05;;;;;;;11.88;6.68;;;;;;;11.43;100.00;95920.94;1015180;29;20287;-68
2021/07/02 00:58:36;;;;;;;9.50;6.20;;;;;;;11.39;100.00;95912.78;1011376;29;20281;-64
2021/07/02 00:59:06;;;;;;;11.38;6.28;;;;;;;11.43;100.00;95924.34;1010991;29;20797;-67
2021/07/02 00:59:37;;;;;;;13.73;6.65;;;;;;;11.42;100.00;95916.75;1011286;29;20032;-67
2021/07/02 01:00:08;;;;;;;12.15;7.20;;;;;;;11.45;100.00;95922.25;1014897;29;20024;-68
2021/07/02 01:00:39;;;;;;;12.05;6.63;;;;;;;11.45;100.00;95919.63;1015132;29;20275;-68
2021/07/02 01:01:14;;;;;;;11.75;6.78;;;;;;;11.48;100.00;95926.97;1019046;29;20267;-67
2021/07/02 01:01:44;;;;;;;10.88;7.10;;;;;;;11.48;100.00;95919.09;1016630;29;20032;-67
2021/07/02 01:02:16;;;;;;;12.07;6.22;;;;;;;11.47;100.00;95920.16;1018481;29;20267;-68
2021/07/02 01:02:52;;;;;;;12.07;7.75;;;;;;;11.43;100.00;95913.84;1014781;29;20032;-68
2021/07/02 01:03:22;;;;;;;13.38;7.35;;;;;;;11.43;100.00;95919.09;1015037;29;20272;-67
2021/07/02 01:03:53;;;;;;;11.32;6.95;;;;;;;11.43;100.00;95923.56;1012031;29;20273;-67
2021/07/02 01:04:23;;;;;;;9.57;6.88;;;;;;;11.32;100.00;95907.78;1014598;29;20024;-67
2021/07/02 01:04:54;;;;;;;10.52;6.88;;;;;;;11.37;100.00;95916.72;1015041;29;20039;-67
2021/07/02 01:05:24;;;;;;;10.10;6.78;;;;;;;11.39;100.00;95922.50;1015199;29;20044;-67
2021/07/02 01:05:57;;;;;;;11.80;7.68;;;;;;;11.38;100.00;95915.69;1021941;29;20031;-68
2021/07/02 01:06:28;;;;;;;13.00;7.50;;;;;;;11.37;100.00;95912.28;1019019;29;20645;-68
2021/07/02 01:06:59;;;;;;;13.60;6.97;;;;;;;11.37;100.00;95919.34;1010959;29;20281;-68
2021/07/02 01:07:30;;;;;;;9.10;6.63;;;;;;;11.35;100.00;95917.00;1007776;29;20032;-67
2021/07/02 01:08:00;;;;;;;11.40;7.13;;;;;;;11.28;100.00;95913.84;1007650;29;20078;-67
2021/07/02 01:08:31;;;;;;;14.25;6.93;;;;;;;11.32;100.00;95917.53;1015096;29;20028;-67
2021/07/02 01:09:03;;;;;;;11.77;7.38;;;;;;;11.30;100.00;95919.59;1014605;29;20032;-67
2021/07/02 01:09:33;;;;;;;13.68;7.30;;;;;;;11.27;100.00;95914.91;1019016;29;20566;-67
2021/07/02 01:10:04;;;;;;;8.73;6.85;;;;;;;11.28;100.00;95921.72;1019160;29;20344;-67
2021/07/02 01:10:35;;;;;;;13.68;7.93;;;;;;;11.27;100.00;95920.94;1019014;29;20090;-67
2021/07/02 01:11:05;;;;;;;11.85;7.75;;;;;;;11.30;100.00;95922.22;1007041;29;20105;-67
2021/07/02 01:11:35;;;;;;;11.00;7.65;;;;;;;11.29;100.00;95918.03;1011017;29;20036;-67
2021/07/02 01:12:06;;;;;;;13.82;8.10;;;;;;;11.28;100.00;95921.72;1015176;29;20039;-67
2021/07/02 01:12:37;;;;;;;11.55;7.38;;;;;;;11.24;100.00;95926.72;1011711;29;20037;-68
2021/07/02 01:13:07;;;;;;;10.50;7.53;;;;;;;11.27;100.00;95930.66;1014813;29;20036;-67
2021/07/02 01:13:38;;;;;;;11.15;7.13;;;;;;;11.22;100.00;95920.16;1015107;29;20028;-68
2021/07/02 01:14:11;;;;;;;10.65;6.88;;;;;;;11.30;100.00;95922.22;1009872;29;20047;-67
2021/07/02 01:14:42;;;;;;;13.48;7.22;;;;;;;11.21;100.00;95910.69;1007425;29;20340;-68
2021/07/02 01:15:25;;;;;;;13.38;7.85;;;;;;;11.26;100.00;95927.22;1011350;29;20035;-68
2021/07/02 01:15:58;;;;;;;12.55;7.65;;;;;;;11.28;100.00;95926.97;1015155;29;20526;-67
2021/07/02 01:16:29;;;;;;;11.20;7.53;;;;;;;11.23;100.00;95916.47;1022907;29;20303;-67
2021/07/02 01:16:59;;;;;;;11.57;7.72;;;;;;;11.26;100.00;95929.84;1020514;29;20271;-66
2021/07/02 01:17:30;;;;;;;12.68;7.85;;;;;;;11.27;100.00;95925.41;1019002;29;20564;-67
2021/07/02 01:18:07;;;;;;;12.32;7.72;;;;;;;11.31;100.00;95921.22;1022693;28;20033;-67
2021/07/02 01:18:38;;;;;;;13.32;6.90;;;;;;;11.27;100.00;95909.66;1022914;29;20027;-68
2021/07/02 01:19:09;;;;;;;10.85;7.20;;;;;;;11.31;100.00;95919.38;1022656;29;20263;-67
2021/07/02 01:19:49;;;;;;;12.88;8.50;;;;;;;11.25;100.00;95909.13;1015328;29;20749;-67
2021/07/02 01:20:20;;;;;;;15.35;8.43;;;;;;;11.26;100.00;95915.94;1019123;29;20062;-68
2021/07/02 01:20:51;;;;;;;19.40;8.60;;;;;;;11.31;100.00;95922.00;1014934;29;20035;-67
2021/07/02 01:21:22;;;;;;;9.35;7.28;;;;;;;11.32;100.00;95923.56;1010605;29;20918;-68
2021/07/02 01:21:55;;;;;;;13.25;8.30;;;;;;;11.32;100.00;95918.31;1010684;29;20276;-67
2021/07/02 01:22:26;;;;;;;14.48;7.65;;;;;;;11.32;100.00;95922.78;1012306;29;20032;-67
2021/07/02 01:22:57;;;;;;;14.63;7.88;;;;;;;11.32;100.00;95917.53;1016556;29;20278;-67
2021/07/02 01:23:28;;;;;;;10.65;7.00;;;;;;;11.30;100.00;95917.78;1014864;29;20754;-67
2021/07/02 01:23:58;;;;;;;13.43;7.70;;;;;;;11.29;100.00;95912.78;1014947;29;20295;-67
2021/07/02 01:24:28;;;;;;;12.27;7.57;;;;;;;11.32;100.00;95918.31;1011818;29;20028;-67
2021/07/02 01:24:59;;;;;;;14.95;8.32;;;;;;;11.32;100.00;95920.94;1014921;29;20449;-67
2021/07/02 01:25:32;;;;;;;14.35;8.43;;;;;;;11.28;100.00;95911.22;1015102;29;20032;-68
2021/07/02 01:26:02;;;;;;;12.88;8.50;;;;;;;11.26;100.00;95908.84;1011055;29;20061;-68
2021/07/02 01:26:33;;;;;;;10.95;7.30;;;;;;;11.32;100.00;95917.53;1010528;29;20352;-67
2021/07/02 01:27:03;;;;;;;12.05;8.18;;;;;;;11.36;100.00;95915.94;1010872;29;20028;-67
2021/07/02 01:27:34;;;;;;;12.02;8.18;;;;;;;11.30;100.00;95907.28;1010467;29;20028;-68
2021/07/02 01:28:04;;;;;;;11.98;7.53;;;;;;;11.38;100.00;95916.47;1010917;29;20490;-67
2021/07/02 01:28:35;;;;;;;14.85;8.25;;;;;;;11.41;100.00;95918.59;1015183;29;20559;-67
2021/07/02 01:29:05;;;;;;;14.73;7.68;;;;;;;11.42;100.00;95919.38;1015002;29;20056;-67
2021/07/02 01:29:36;;;;;;;14.50;7.45;;;;;;;11.41;100.00;95915.16;1014465;29;20120;-67
2021/07/02 01:30:07;;;;;;;12.95;7.95;;;;;;;11.31;100.00;95906.22;1018865;29;20569;-67
2021/07/02 01:30:38;;;;;;;14.52;8.13;;;;;;;11.38;100.00;95913.84;1015233;29;20036;-68
2021/07/02 01:31:08;;;;;;;13.63;8.13;;;;;;;11.39;100.00;95912.00;1019135;29;20649;-67
2021/07/02 01:31:38;;;;;;;12.05;8.02;;;;;;;11.38;100.00;95910.44;1018359;29;20019;-68
2021/07/02 01:32:10;;;;;;;13.32;7.85;;;;;;;11.38;100.00;95916.47;1018903;29;20023;-67
2021/07/02 01:32:41;;;;;;;13.75;7.57;;;;;;;11.37;100.00;95914.09;1014802;29;20040;-67
2021/07/02 01:33:11;;;;;;;15.13;8.63;;;;;;;11.36;100.00;95907.28;1010796;29;20296;-67
2021/07/02 01:33:42;;;;;;;16.30;7.93;;;;;;;11.35;100.00;95911.75;1014886;29;20414;-67
2021/07/02 01:34:12;;;;;;;12.98;7.68;;;;;;;11.35;100.00;95906.50;1011330;29;20032;-67
2021/07/02 01:34:46;;;;;;;11.65;8.18;;;;;;;11.36;100.00;95910.69;1012249;29;20029;-68
2021/07/02 01:35:17;;;;;;;12.13;8.07;;;;;;;11.28;100.00;95905.97;1015037;29;20841;-68
2021/07/02 01:35:47;;;;;;;13.35;7.90;;;;;;;11.36;100.00;95917.78;1018657;29;20061;-67
2021/07/02 01:36:22;;;;;;;12.75;7.85;;;;;;;11.36;100.00;95915.94;1018249;29;20028;-67
2021/07/02 01:36:53;;;;;;;12.93;7.68;;;;;;;11.38;100.00;95915.69;1018748;29;20035;-67
2021/07/02 01:37:23;;;;;;;13.38;8.05;;;;;;;11.39;100.00;95912.78;1018269;29;20645;-67
2021/07/02 01:37:54;;;;;;;13.20;8.68;;;;;;;11.40;100.00;95914.38;1019904;28;20055;-67
2021/07/02 01:38:24;;;;;;;14.88;8.43;;;;;;;11.40;100.00;95911.75;1022561;28;20023;-67
2021/07/02 01:38:55;;;;;;;10.35;7.45;;;;;;;11.35;100.00;95905.72;1023518;29;20031;-67
2021/07/02 01:39:25;;;;;;;12.55;7.85;;;;;;;11.42;100.00;95914.91;1023630;29;20034;-67
2021/07/02 01:39:56;;;;;;;13.70;8.60;;;;;;;11.42;100.00;95914.91;1022694;28;20031;-67
2021/07/02 01:40:26;;;;;;;12.32;8.05;;;;;;;11.38;100.00;95903.34;1019679;29;20035;-68
2021/07/02 01:40:57;;;;;;;19.73;8.68;;;;;;;11.46;100.00;95915.16;1015811;29;20028;-66
2021/07/02 01:41:27;;;;;;;15.82;8.93;;;;;;;11.48;100.00;95911.22;1015474;29;20036;-67
2021/07/02 01:41:57;;;;;;;14.02;8.55;;;;;;;11.50;100.00;95916.19;1019387;29;20023;-66
2021/07/02 01:42:28;;;;;;;13.10;8.13;;;;;;;11.49;100.00;95912.00;1015792;29;20029;-67
2021/07/02 01:42:59;;;;;;;15.05;8.60;;;;;;;11.39;100.00;95897.03;1011629;29;20043;-67
2021/07/02 01:43:29;;;;;;;13.68;8.18;;;;;;;11.49;100.00;95912.78;1003941;29;20493;-68
2021/07/02 01:44:00;;;;;;;15.15;8.60;;;;;;;11.43;100.00;95907.78;1004252;29;20274;-67
2021/07/02 01:44:33;;;;;;;13.32;8.48;;;;;;;11.49;100.00;95912.00;1004505;29;20040;-68
2021/07/02 01:45:05;;;;;;;11.85;8.23;;;;;;;11.43;100.00;95903.31;1011589;29;20036;-68
2021/07/02 01:45:36;;;;;;;12.52;7.90;;;;;;;11.52;100.00;95914.09;1009088;29;20268;-66
2021/07/02 01:46:06;;;;;;;10.88;7.40;;;;;;;11.53;100.00;95913.81;1009732;29;20272;-68
2021/07/02 01:46:38;;;;;;;14.50;7.95;;;;;;;11.54;100.00;95912.00;1011068;29;20029;-68
2021/07/02 01:47:09;;;;;;;13.80;7.88;;;;;;;11.55;100.00;95910.94;1011771;29;20039;-67
2021/07/02 01:47:39;;;;;;;13.90;8.05;;;;;;;11.57;100.00;95914.91;1014313;29;20326;-68
2021/07/02 01:48:10;;;;;;;11.57;7.55;;;;;;;11.53;100.00;95910.41;1019014;29;20027;-67
2021/07/02 01:48:40;;;;;;;12.35;7.95;;;;;;;11.42;100.00;95890.47;1022999;29;20052;-68
2021/07/02 01:49:11;;;;;;;13.32;8.57;;;;;;;11.60;100.00;95918.81;1024099;28;20034;-65
2021/07/02 01:49:41;;;;;;;13.90;8.07;;;;;;;11.62;100.00;95915.94;1023264;29;20031;-68
2021/07/02 01:50:11;;;;;;;13.40;8.52;;;;;;;11.61;100.00;95915.16;1016602;29;20589;-68
2021/07/02 01:50:42;;;;;;;14.43;8.60;;;;;;;11.62;100.00;95918.56;1019280;29;20463;-67
2021/07/02 01:51:12;;;;;;;15.27;8.05;;;;;;;11.60;100.00;95918.03;1019389;29;20028;-68
2021/07/02 01:51:43;;;;;;;14.10;8.13;;;;;;;11.63;100.00;95917.50;1015254;29;20028;-65
2021/07/02 01:52:16;;;;;;;13.85;8.05;;;;;;;11.63;100.00;95915.66;1015574;29;20040;-68
2021/07/02 01:52:50;;;;;;;15.82;8.60;;;;;;;11.60;100.00;95907.53;1023624;28;20041;-68
2021/07/02 01:53:24;;;;;;;14.20;8.98;;;;;;;11.63;100.00;95920.91;1012440;29;20304;-66
2021/07/02 01:53:54;;;;;;;15.20;8.80;;;;;;;11.63;100.00;95914.88;1007637;29;20277;-68
2021/07/02 01:54:25;;;;;;;17.20;8.20;;;;;;;11.65;100.00;95918.03;1007523;29;20458;-68
2021/07/02 01:54:55;;;;;;;12.70;8.30;;;;;;;11.64;100.00;95917.25;1008436;29;20097;-67
2021/07/02 01:55:26;;;;;;;17.42;8.27;;;;;;;11.66;100.00;95917.78;1017567;29;20039;-67
2021/07/02 01:55:56;;;;;;;15.50;8.35;;;;;;;11.67;100.00;95913.28;1015438;29;20063;-68
2021/07/02 01:56:27;;;;;;;12.63;7.63;;;;;;;11.64;100.00;95911.22;1015270;29;20032;-67
2021/07/02 01:56:57;;;;;;;13.45;7.90;;;;;;;11.66;100.00;95916.97;1013986;29;20040;-67
2021/07/02 01:57:28;;;;;;;12.75;8.32;;;;;;;11.67;100.00;95916.72;1006881;29;20037;-67
2021/07/02 01:57:58;;;;;;;15.73;8.93;;;;;;;11.67;100.00;95913.28;1015463;29;20032;-67
2021/07/02 01:58:29;;;;;;;13.45;8.50;;;;;;;11.67;100.00;95916.72;1015468;29;20077;-67
2021/07/02 01:58:59;;;;;;;12.20;8.23;;;;;;;11.63;100.00;95907.78;1014592;29;20509;-67
2021/07/02 01:59:30;;;;;;;13.45;8.20;;;;;;;11.70;100.00;95924.09;1019453;29;20031;-68
2021/07/02 02:00:00;;;;;;;12.30;7.80;;;;;;;11.69;100.00;95916.47;1023447;29;20028;-68
2021/07/02 02:00:31;;;;;;;12.27;7.82;;;;;;;11.66;100.00;95912.50;1017687;29;20028;-68
2021/07/02 02:01:01;;;;;;;16.70;9.10;;;;;;;11.65;100.00;95910.16;1015439;29;20032;-67
2021/07/02 02:01:34;;;;;;;16.48;8.63;;;;;;;11.70;100.00;95915.41;1011674;29;20707;-67
2021/07/02 02:02:05;;;;;;;14.27;8.30;;;;;;;11.64;100.00;95904.13;1013652;29;20518;-64
2021/07/02 02:02:35;;;;;;;13.80;8.88;;;;;;;11.71;100.00;95909.09;1015560;29;20284;-67
2021/07/02 02:03:05;;;;;;;12.13;7.90;;;;;;;11.72;100.00;95915.94;1019155;29;20031;-68
2021/07/02 02:03:36;;;;;;;17.30;8.63;;;;;;;11.71;100.00;95912.53;1019428;29;20032;-67
2021/07/02 02:04:06;;;;;;;12.95;8.73;;;;;;;11.74;100.00;95919.09;1016430;29;20039;-67
2021/07/02 02:04:37;;;;;;;14.13;8.05;;;;;;;11.71;100.00;95914.38;1015721;29;20036;-67
2021/07/02 02:05:08;;;;;;;15.35;9.15;;;;;;;11.74;100.00;95916.47;1015199;29;20032;-68
2021/07/02 02:05:38;;;;;;;19.70;8.77;;;;;;;11.73;100.00;95913.03;1015170;29;20436;-67
2021/07/02 02:06:09;;;;;;;14.23;8.77;;;;;;;11.70;100.00;95907.50;1015239;29;20541;-67
2021/07/02 02:06:39;;;;;;;14.55;9.07;;;;;;;11.68;100.00;95910.41;1011805;29;20660;-67
2021/07/02 02:07:10;;;;;;;13.65;8.57;;;;;;;11.73;100.00;95920.13;1018823;29;20079;-65
2021/07/02 02:07:40;;;;;;;12.63;8.77;;;;;;;11.74;100.00;95913.84;1018632;29;20064;-68
2021/07/02 02:08:11;;;;;;;16.25;9.02;;;;;;;11.76;100.00;95922.22;1015204;29;20504;-67
2021/07/02 02:08:41;;;;;;;13.10;8.95;;;;;;;11.76;100.00;95922.22;1019249;29;20036;-68
2021/07/02 02:09:12;;;;;;;15.07;8.75;;;;;;;11.77;100.00;95923.81;1015015;29;20024;-68
2021/07/02 02:09:42;;;;;;;14.45;8.70;;;;;;;11.78;100.00;95917.50;1019342;29;20367;-67
2021/07/02 02:10:13;;;;;;;15.85;8.88;;;;;;;11.76;100.00;95923.00;1015400;29;20032;-67
2021/07/02 02:10:43;;;;;;;15.75;9.98;;;;;;;11.78;100.00;95917.50;1010909;29;20032;-67
2021/07/02 02:11:14;;;;;;;16.63;8.88;;;;;;;11.76;100.00;95916.97;1015226;29;20767;-68
2021/07/02 02:11:47;;;;;;;15.63;8.82;;;;;;;11.77;100.00;95913.31;1015418;29;20040;-67
2021/07/02 02:12:18;;;;;;;12.13;7.53;;;;;;;11.77;100.00;95913.31;1015390;29;20276;-67
2021/07/02 02:12:48;;;;;;;18.08;9.60;;;;;;;11.78;100.00;95915.66;1019355;29;20039;-68
2021/07/02 02:13:18;;;;;;;13.25;8.07;;;;;;;11.80;100.00;95913.56;1019610;29;20036;-67
2021/07/02 02:13:49;;;;;;;15.05;8.80;;;;;;;11.81;100.00;95916.97;1023115;29;20470;-68
2021/07/02 02:14:19;;;;;;;13.88;8.27;;;;;;;11.79;100.00;95919.06;1020295;29;20394;-67
2021/07/02 02:14:50;;;;;;;16.95;8.15;;;;;;;11.80;100.00;95913.56;1019433;29;20397;-68
2021/07/02 02:15:20;;;;;;;14.75;8.55;;;;;;;11.82;100.00;95910.66;1019139;29;20084;-67
2021/07/02 02:15:51;;;;;;;18.15;9.25;;;;;;;11.83;100.00;95914.84;1016168;29;20032;-68
2021/07/02 02:16:21;;;;;;;13.65;8.30;;;;;;;11.82;100.00;95915.91;1019033;29;20039;-68
2021/07/02 02:16:52;;;;;;;13.77;8.85;;;;;;;11.82;100.00;95915.91;1011303;29;20028;-67
2021/07/02 02:17:22;;;;;;;16.25;9.38;;;;;;;11.83;100.00;95912.22;1009237;29;20033;-67
2021/07/02 02:17:53;;;;;;;15.18;8.85;;;;;;;11.82;100.00;95915.13;1007592;29;20451;-67
2021/07/02 02:18:23;;;;;;;12.15;8.23;;;;;;;11.80;100.00;95913.56;1007882;29;20491;-68
2021/07/02 02:18:53;;;;;;;18.25;8.75;;;;;;;11.76;100.00;95906.47;1015558;29;20479;-68
2021/07/02 02:19:24;;;;;;;13.25;7.80;;;;;;;11.74;100.00;95900.69;1018879;29;20027;-68
2021/07/02 02:19:54;;;;;;;13.07;8.25;;;;;;;11.80;100.00;95913.56;1015696;29;20012;-67
2021/07/02 02:20:25;;;;;;;14.35;9.02;;;;;;;11.82;100.00;95909.88;1015828;29;20085;-68
2021/07/02 02:20:55;;;;;;;12.63;8.35;;;;;;;11.82;100.00;95915.91;1015175;29;20067;-67
2021/07/02 02:21:26;;;;;;;14.45;8.70;;;;;;;11.83;100.00;95912.22;1011812;29;20490;-67
2021/07/02 02:21:59;;;;;;;12.93;8.77;;;;;;;11.79;100.00;95905.94;1019656;29;20631;-68
2021/07/02 02:22:30;;;;;;;13.70;8.77;;;;;;;11.82;100.00;95910.66;1019987;29;20031;-66
2021/07/02 02:23:00;;;;;;;15.63;9.35;;;;;;;11.82;100.00;95905.41;1023334;29;21045;-67